sensor_id;sensor_type;location;lat;lon;timestamp;P1;durP1;ratioP1;P2;durP2;ratioP2
3815;SDS011;1923;48.154;11.536;2023-07-28T00:00:35;5.10;;;3.30;;
3815;SDS011;1923;48.154;11.536;2023-07-28T00:03:04;4.57;;;2.97;;
3815;SDS011;1923;48.154;11.536;2023-07-28T00:05:33;3.20;;;2.60;;
3815;SDS011;1923;48.154;11.536;2023-07-28T00:08:01;5.90;;;2.60;;
3815;SDS011;1923;48.154;11.536;2023-07-28T00:10:29;5.27;;;2.80;;
3815;SDS011;1923;48.154;11.536;2023-07-28T00:12:58;4.00;;;3.03;;
3815;SDS011;1923;48.154;11.536;2023-07-28T00:15:29;5.87;;;2.93;;
3815;SDS011;1923;48.154;11.536;2023-07-28T00:17:57;6.00;;;2.80;;
3815;SDS011;1923;48.154;11.536;2023-07-28T00:20:27;5.17;;;3.40;;
3815;SDS011;1923;48.154;11.536;2023-07-28T00:22:55;6.10;;;2.77;;
3815;SDS011;1923;48.154;11.536;2023-07-28T00:25:26;5.00;;;2.57;;
3815;SDS011;1923;48.154;11.536;2023-07-28T00:27:54;5.80;;;2.70;;
3815;SDS011;1923;48.154;11.536;2023-07-28T00:30:22;4.37;;;2.60;;
3815;SDS011;1923;48.154;11.536;2023-07-28T00:32:51;4.70;;;2.53;;
3815;SDS011;1923;48.154;11.536;2023-07-28T00:35:20;4.67;;;2.53;;
3815;SDS011;1923;48.154;11.536;2023-07-28T00:37:49;5.97;;;2.70;;
3815;SDS011;1923;48.154;11.536;2023-07-28T00:40:17;3.77;;;2.33;;
3815;SDS011;1923;48.154;11.536;2023-07-28T00:42:45;3.83;;;2.80;;
3815;SDS011;1923;48.154;11.536;2023-07-28T00:45:13;3.80;;;2.37;;
3815;SDS011;1923;48.154;11.536;2023-07-28T00:47:41;7.33;;;2.60;;
3815;SDS011;1923;48.154;11.536;2023-07-28T00:50:10;4.67;;;2.63;;
3815;SDS011;1923;48.154;11.536;2023-07-28T00:52:38;3.23;;;2.13;;
3815;SDS011;1923;48.154;11.536;2023-07-28T00:55:08;4.97;;;2.40;;
3815;SDS011;1923;48.154;11.536;2023-07-28T00:57:36;4.00;;;2.50;;
3815;SDS011;1923;48.154;11.536;2023-07-28T01:00:06;5.17;;;2.53;;
3815;SDS011;1923;48.154;11.536;2023-07-28T01:02:35;3.33;;;2.30;;
3815;SDS011;1923;48.154;11.536;2023-07-28T01:05:03;3.50;;;2.10;;
3815;SDS011;1923;48.154;11.536;2023-07-28T01:07:35;2.50;;;1.80;;
3815;SDS011;1923;48.154;11.536;2023-07-28T01:10:12;3.13;;;2.33;;
3815;SDS011;1923;48.154;11.536;2023-07-28T01:12:46;2.63;;;1.60;;
3815;SDS011;1923;48.154;11.536;2023-07-28T01:15:14;3.90;;;1.80;;
3815;SDS011;1923;48.154;11.536;2023-07-28T01:17:42;4.80;;;2.50;;
3815;SDS011;1923;48.154;11.536;2023-07-28T01:20:10;3.73;;;1.90;;
3815;SDS011;1923;48.154;11.536;2023-07-28T01:22:46;3.53;;;2.10;;
3815;SDS011;1923;48.154;11.536;2023-07-28T01:25:28;2.97;;;1.70;;
3815;SDS011;1923;48.154;11.536;2023-07-28T01:28:05;5.57;;;1.90;;
3815;SDS011;1923;48.154;11.536;2023-07-28T01:30:34;3.43;;;2.00;;
3815;SDS011;1923;48.154;11.536;2023-07-28T01:33:05;2.80;;;1.90;;
3815;SDS011;1923;48.154;11.536;2023-07-28T01:35:35;2.93;;;1.73;;
3815;SDS011;1923;48.154;11.536;2023-07-28T01:38:03;2.70;;;2.00;;
3815;SDS011;1923;48.154;11.536;2023-07-28T01:40:31;2.53;;;1.83;;
3815;SDS011;1923;48.154;11.536;2023-07-28T01:42:59;2.47;;;1.70;;
3815;SDS011;1923;48.154;11.536;2023-07-28T01:45:29;2.73;;;1.90;;
3815;SDS011;1923;48.154;11.536;2023-07-28T01:47:57;3.67;;;2.00;;
3815;SDS011;1923;48.154;11.536;2023-07-28T01:50:25;4.00;;;1.80;;
3815;SDS011;1923;48.154;11.536;2023-07-28T01:52:53;2.47;;;1.53;;
3815;SDS011;1923;48.154;11.536;2023-07-28T01:55:22;5.17;;;2.03;;
3815;SDS011;1923;48.154;11.536;2023-07-28T01:57:51;2.73;;;1.67;;
3815;SDS011;1923;48.154;11.536;2023-07-28T02:00:21;2.40;;;1.70;;
3815;SDS011;1923;48.154;11.536;2023-07-28T02:02:51;2.90;;;2.10;;
3815;SDS011;1923;48.154;11.536;2023-07-28T02:05:20;2.97;;;1.90;;
3815;SDS011;1923;48.154;11.536;2023-07-28T02:07:48;3.40;;;2.13;;
3815;SDS011;1923;48.154;11.536;2023-07-28T02:10:16;3.73;;;1.70;;
3815;SDS011;1923;48.154;11.536;2023-07-28T02:12:44;3.13;;;1.60;;
3815;SDS011;1923;48.154;11.536;2023-07-28T02:15:13;2.80;;;1.90;;
3815;SDS011;1923;48.154;11.536;2023-07-28T02:17:41;2.70;;;1.87;;
3815;SDS011;1923;48.154;11.536;2023-07-28T02:20:11;2.97;;;1.73;;
3815;SDS011;1923;48.154;11.536;2023-07-28T02:22:39;3.67;;;1.70;;
3815;SDS011;1923;48.154;11.536;2023-07-28T02:25:07;2.80;;;1.50;;
3815;SDS011;1923;48.154;11.536;2023-07-28T02:27:35;4.10;;;2.07;;
3815;SDS011;1923;48.154;11.536;2023-07-28T02:30:04;3.67;;;2.07;;
3815;SDS011;1923;48.154;11.536;2023-07-28T02:32:33;2.43;;;1.53;;
3815;SDS011;1923;48.154;11.536;2023-07-28T02:35:03;3.67;;;1.63;;
3815;SDS011;1923;48.154;11.536;2023-07-28T02:37:33;3.80;;;1.63;;
3815;SDS011;1923;48.154;11.536;2023-07-28T02:40:01;4.17;;;1.97;;
3815;SDS011;1923;48.154;11.536;2023-07-28T02:42:30;3.30;;;1.57;;
3815;SDS011;1923;48.154;11.536;2023-07-28T02:45:00;3.97;;;1.87;;
3815;SDS011;1923;48.154;11.536;2023-07-28T02:47:28;2.50;;;1.70;;
3815;SDS011;1923;48.154;11.536;2023-07-28T02:49:56;2.20;;;1.60;;
3815;SDS011;1923;48.154;11.536;2023-07-28T02:52:24;2.43;;;1.40;;
3815;SDS011;1923;48.154;11.536;2023-07-28T02:54:55;3.10;;;2.10;;
3815;SDS011;1923;48.154;11.536;2023-07-28T02:57:23;2.20;;;1.70;;
3815;SDS011;1923;48.154;11.536;2023-07-28T02:59:51;3.30;;;1.90;;
3815;SDS011;1923;48.154;11.536;2023-07-28T03:02:19;3.90;;;1.80;;
3815;SDS011;1923;48.154;11.536;2023-07-28T03:04:57;4.57;;;2.07;;
3815;SDS011;1923;48.154;11.536;2023-07-28T03:07:26;3.27;;;1.70;;
3815;SDS011;1923;48.154;11.536;2023-07-28T03:09:55;3.40;;;2.00;;
3815;SDS011;1923;48.154;11.536;2023-07-28T03:12:23;2.10;;;1.43;;
3815;SDS011;1923;48.154;11.536;2023-07-28T03:14:51;1.60;;;1.30;;
3815;SDS011;1923;48.154;11.536;2023-07-28T03:17:19;3.00;;;2.00;;
3815;SDS011;1923;48.154;11.536;2023-07-28T03:19:47;2.40;;;1.87;;
3815;SDS011;1923;48.154;11.536;2023-07-28T03:22:15;2.50;;;2.00;;
3815;SDS011;1923;48.154;11.536;2023-07-28T03:24:43;2.40;;;2.20;;
3815;SDS011;1923;48.154;11.536;2023-07-28T03:27:14;3.23;;;1.67;;
3815;SDS011;1923;48.154;11.536;2023-07-28T03:29:42;3.90;;;2.50;;
3815;SDS011;1923;48.154;11.536;2023-07-28T03:32:10;4.07;;;2.10;;
3815;SDS011;1923;48.154;11.536;2023-07-28T03:34:38;3.00;;;1.80;;
3815;SDS011;1923;48.154;11.536;2023-07-28T03:37:06;2.57;;;1.63;;
3815;SDS011;1923;48.154;11.536;2023-07-28T03:39:35;4.20;;;2.13;;
3815;SDS011;1923;48.154;11.536;2023-07-28T03:42:03;3.10;;;1.93;;
3815;SDS011;1923;48.154;11.536;2023-07-28T03:44:33;3.10;;;2.00;;
3815;SDS011;1923;48.154;11.536;2023-07-28T03:47:08;2.80;;;2.00;;
3815;SDS011;1923;48.154;11.536;2023-07-28T03:49:36;3.33;;;2.30;;
3815;SDS011;1923;48.154;11.536;2023-07-28T03:52:05;3.73;;;1.83;;
3815;SDS011;1923;48.154;11.536;2023-07-28T03:54:33;3.00;;;1.80;;
3815;SDS011;1923;48.154;11.536;2023-07-28T03:57:01;2.47;;;1.50;;
3815;SDS011;1923;48.154;11.536;2023-07-28T03:59:30;4.70;;;1.80;;
3815;SDS011;1923;48.154;11.536;2023-07-28T04:01:59;4.90;;;1.83;;
3815;SDS011;1923;48.154;11.536;2023-07-28T04:04:27;5.40;;;2.63;;
3815;SDS011;1923;48.154;11.536;2023-07-28T04:06:55;3.70;;;2.10;;
3815;SDS011;1923;48.154;11.536;2023-07-28T04:09:23;4.43;;;2.13;;
3815;SDS011;1923;48.154;11.536;2023-07-28T04:11:51;5.70;;;1.70;;
3815;SDS011;1923;48.154;11.536;2023-07-28T04:14:19;3.27;;;1.83;;
3815;SDS011;1923;48.154;11.536;2023-07-28T04:16:48;4.70;;;2.80;;
3815;SDS011;1923;48.154;11.536;2023-07-28T04:19:17;3.70;;;2.10;;
3815;SDS011;1923;48.154;11.536;2023-07-28T04:21:45;3.13;;;2.13;;
3815;SDS011;1923;48.154;11.536;2023-07-28T04:24:13;3.63;;;2.40;;
3815;SDS011;1923;48.154;11.536;2023-07-28T04:26:41;3.30;;;2.10;;
3815;SDS011;1923;48.154;11.536;2023-07-28T04:29:10;3.00;;;1.90;;
3815;SDS011;1923;48.154;11.536;2023-07-28T04:31:38;4.70;;;2.03;;
3815;SDS011;1923;48.154;11.536;2023-07-28T04:34:06;2.63;;;1.40;;
3815;SDS011;1923;48.154;11.536;2023-07-28T04:36:36;2.20;;;1.60;;
3815;SDS011;1923;48.154;11.536;2023-07-28T04:39:04;5.43;;;2.83;;
3815;SDS011;1923;48.154;11.536;2023-07-28T04:41:32;4.23;;;2.03;;
3815;SDS011;1923;48.154;11.536;2023-07-28T04:44:00;2.43;;;1.60;;
3815;SDS011;1923;48.154;11.536;2023-07-28T04:46:28;49.17;;;19.27;;
3815;SDS011;1923;48.154;11.536;2023-07-28T04:48:57;73.90;;;25.23;;
3815;SDS011;1923;48.154;11.536;2023-07-28T04:51:25;32.57;;;12.37;;
3815;SDS011;1923;48.154;11.536;2023-07-28T04:53:54;22.60;;;9.50;;
3815;SDS011;1923;48.154;11.536;2023-07-28T04:56:22;8.73;;;3.83;;
3815;SDS011;1923;48.154;11.536;2023-07-28T04:58:50;9.73;;;2.80;;
3815;SDS011;1923;48.154;11.536;2023-07-28T05:01:19;4.17;;;2.33;;
3815;SDS011;1923;48.154;11.536;2023-07-28T05:03:47;3.13;;;2.00;;
3815;SDS011;1923;48.154;11.536;2023-07-28T05:06:15;4.23;;;2.73;;
3815;SDS011;1923;48.154;11.536;2023-07-28T05:08:43;4.03;;;1.97;;
3815;SDS011;1923;48.154;11.536;2023-07-28T05:11:13;3.77;;;2.47;;
3815;SDS011;1923;48.154;11.536;2023-07-28T05:13:41;5.43;;;2.30;;
3815;SDS011;1923;48.154;11.536;2023-07-28T05:16:09;3.10;;;2.10;;
3815;SDS011;1923;48.154;11.536;2023-07-28T05:18:37;3.47;;;2.53;;
3815;SDS011;1923;48.154;11.536;2023-07-28T05:21:06;5.40;;;3.30;;
3815;SDS011;1923;48.154;11.536;2023-07-28T05:23:34;4.90;;;1.90;;
3815;SDS011;1923;48.154;11.536;2023-07-28T05:26:02;5.10;;;3.53;;
3815;SDS011;1923;48.154;11.536;2023-07-28T05:28:33;3.13;;;2.30;;
3815;SDS011;1923;48.154;11.536;2023-07-28T05:31:05;6.90;;;2.20;;
3815;SDS011;1923;48.154;11.536;2023-07-28T05:33:33;3.70;;;1.90;;
3815;SDS011;1923;48.154;11.536;2023-07-28T05:36:03;5.50;;;2.80;;
3815;SDS011;1923;48.154;11.536;2023-07-28T05:38:31;2.57;;;1.90;;
3815;SDS011;1923;48.154;11.536;2023-07-28T05:41:00;3.10;;;2.17;;
3815;SDS011;1923;48.154;11.536;2023-07-28T05:43:29;4.30;;;2.23;;
3815;SDS011;1923;48.154;11.536;2023-07-28T05:45:59;3.70;;;2.00;;
3815;SDS011;1923;48.154;11.536;2023-07-28T05:48:28;6.57;;;3.00;;
3815;SDS011;1923;48.154;11.536;2023-07-28T05:50:56;4.00;;;2.20;;
3815;SDS011;1923;48.154;11.536;2023-07-28T05:53:27;4.30;;;2.30;;
3815;SDS011;1923;48.154;11.536;2023-07-28T05:55:55;5.87;;;2.13;;
3815;SDS011;1923;48.154;11.536;2023-07-28T05:58:23;3.10;;;2.10;;
3815;SDS011;1923;48.154;11.536;2023-07-28T06:00:53;3.37;;;2.10;;
3815;SDS011;1923;48.154;11.536;2023-07-28T06:03:21;4.93;;;2.40;;
3815;SDS011;1923;48.154;11.536;2023-07-28T06:05:49;4.13;;;2.07;;
3815;SDS011;1923;48.154;11.536;2023-07-28T06:08:18;2.27;;;1.93;;
3815;SDS011;1923;48.154;11.536;2023-07-28T06:10:45;4.47;;;2.20;;
3815;SDS011;1923;48.154;11.536;2023-07-28T06:13:15;5.93;;;2.50;;
3815;SDS011;1923;48.154;11.536;2023-07-28T06:15:43;3.57;;;2.20;;
3815;SDS011;1923;48.154;11.536;2023-07-28T06:18:13;7.73;;;2.40;;
3815;SDS011;1923;48.154;11.536;2023-07-28T06:20:42;5.00;;;2.03;;
3815;SDS011;1923;48.154;11.536;2023-07-28T06:23:11;3.90;;;2.00;;
3815;SDS011;1923;48.154;11.536;2023-07-28T06:25:39;3.03;;;2.37;;
3815;SDS011;1923;48.154;11.536;2023-07-28T06:28:10;2.57;;;1.90;;
3815;SDS011;1923;48.154;11.536;2023-07-28T06:30:38;3.27;;;2.20;;
3815;SDS011;1923;48.154;11.536;2023-07-28T06:33:06;2.63;;;2.00;;
3815;SDS011;1923;48.154;11.536;2023-07-28T06:35:36;2.27;;;1.70;;
3815;SDS011;1923;48.154;11.536;2023-07-28T06:38:04;4.10;;;1.90;;
3815;SDS011;1923;48.154;11.536;2023-07-28T06:40:32;3.70;;;2.07;;
3815;SDS011;1923;48.154;11.536;2023-07-28T06:43:01;6.47;;;2.47;;
3815;SDS011;1923;48.154;11.536;2023-07-28T06:45:29;2.83;;;1.70;;
3815;SDS011;1923;48.154;11.536;2023-07-28T06:47:57;2.03;;;1.57;;
3815;SDS011;1923;48.154;11.536;2023-07-28T06:50:25;3.57;;;2.00;;
3815;SDS011;1923;48.154;11.536;2023-07-28T06:52:54;3.80;;;1.90;;
3815;SDS011;1923;48.154;11.536;2023-07-28T06:55:22;1.90;;;1.63;;
3815;SDS011;1923;48.154;11.536;2023-07-28T06:57:50;3.50;;;2.10;;
3815;SDS011;1923;48.154;11.536;2023-07-28T07:00:18;2.07;;;1.47;;
3815;SDS011;1923;48.154;11.536;2023-07-28T07:02:46;4.50;;;2.10;;
3815;SDS011;1923;48.154;11.536;2023-07-28T07:05:16;2.67;;;1.70;;
3815;SDS011;1923;48.154;11.536;2023-07-28T07:07:43;3.67;;;1.80;;
3815;SDS011;1923;48.154;11.536;2023-07-28T07:10:13;3.83;;;2.13;;
3815;SDS011;1923;48.154;11.536;2023-07-28T07:12:41;4.33;;;2.43;;
3815;SDS011;1923;48.154;11.536;2023-07-28T07:15:09;3.20;;;1.50;;
3815;SDS011;1923;48.154;11.536;2023-07-28T07:17:38;4.53;;;1.60;;
3815;SDS011;1923;48.154;11.536;2023-07-28T07:20:07;9.47;;;4.77;;
3815;SDS011;1923;48.154;11.536;2023-07-28T07:22:37;3.73;;;1.50;;
3815;SDS011;1923;48.154;11.536;2023-07-28T07:25:05;3.83;;;2.10;;
3815;SDS011;1923;48.154;11.536;2023-07-28T07:27:35;2.93;;;1.70;;
3815;SDS011;1923;48.154;11.536;2023-07-28T07:30:03;4.37;;;2.23;;
3815;SDS011;1923;48.154;11.536;2023-07-28T07:32:32;3.43;;;2.07;;
3815;SDS011;1923;48.154;11.536;2023-07-28T07:35:01;2.50;;;1.50;;
3815;SDS011;1923;48.154;11.536;2023-07-28T07:37:29;2.93;;;1.90;;
3815;SDS011;1923;48.154;11.536;2023-07-28T07:39:59;4.13;;;1.67;;
3815;SDS011;1923;48.154;11.536;2023-07-28T07:42:40;3.40;;;1.77;;
3815;SDS011;1923;48.154;11.536;2023-07-28T07:45:11;1.73;;;1.40;;
3815;SDS011;1923;48.154;11.536;2023-07-28T07:47:39;2.03;;;1.67;;
3815;SDS011;1923;48.154;11.536;2023-07-28T07:50:08;1.70;;;1.37;;
3815;SDS011;1923;48.154;11.536;2023-07-28T07:52:38;4.13;;;1.80;;
3815;SDS011;1923;48.154;11.536;2023-07-28T07:55:08;4.23;;;1.40;;
3815;SDS011;1923;48.154;11.536;2023-07-28T07:57:38;3.10;;;1.70;;
3815;SDS011;1923;48.154;11.536;2023-07-28T08:00:08;2.07;;;1.40;;
3815;SDS011;1923;48.154;11.536;2023-07-28T08:02:38;1.63;;;1.33;;
3815;SDS011;1923;48.154;11.536;2023-07-28T08:05:09;4.77;;;1.40;;
3815;SDS011;1923;48.154;11.536;2023-07-28T08:07:37;2.93;;;1.63;;
3815;SDS011;1923;48.154;11.536;2023-07-28T08:10:06;3.27;;;2.00;;
3815;SDS011;1923;48.154;11.536;2023-07-28T08:12:34;4.60;;;3.33;;
3815;SDS011;1923;48.154;11.536;2023-07-28T08:15:02;2.87;;;1.50;;
3815;SDS011;1923;48.154;11.536;2023-07-28T08:17:32;2.20;;;1.57;;
3815;SDS011;1923;48.154;11.536;2023-07-28T08:20:01;2.83;;;1.93;;
3815;SDS011;1923;48.154;11.536;2023-07-28T08:22:29;1.93;;;1.43;;
3815;SDS011;1923;48.154;11.536;2023-07-28T08:24:58;2.23;;;1.30;;
3815;SDS011;1923;48.154;11.536;2023-07-28T08:27:26;2.17;;;1.33;;
3815;SDS011;1923;48.154;11.536;2023-07-28T08:29:54;3.83;;;1.70;;
3815;SDS011;1923;48.154;11.536;2023-07-28T08:32:22;3.03;;;1.80;;
3815;SDS011;1923;48.154;11.536;2023-07-28T08:34:52;2.43;;;1.70;;
3815;SDS011;1923;48.154;11.536;2023-07-28T08:37:20;3.63;;;1.43;;
3815;SDS011;1923;48.154;11.536;2023-07-28T08:39:49;3.17;;;1.60;;
3815;SDS011;1923;48.154;11.536;2023-07-28T08:42:17;3.30;;;1.60;;
3815;SDS011;1923;48.154;11.536;2023-07-28T08:44:45;3.80;;;1.87;;
3815;SDS011;1923;48.154;11.536;2023-07-28T08:47:13;3.73;;;1.77;;
3815;SDS011;1923;48.154;11.536;2023-07-28T08:49:41;2.50;;;1.40;;
3815;SDS011;1923;48.154;11.536;2023-07-28T08:52:12;2.33;;;1.80;;
3815;SDS011;1923;48.154;11.536;2023-07-28T08:54:43;1.40;;;1.10;;
3815;SDS011;1923;48.154;11.536;2023-07-28T08:57:12;2.80;;;1.67;;
3815;SDS011;1923;48.154;11.536;2023-07-28T08:59:41;2.30;;;1.47;;
3815;SDS011;1923;48.154;11.536;2023-07-28T09:02:14;1.90;;;1.23;;
3815;SDS011;1923;48.154;11.536;2023-07-28T09:04:43;3.10;;;1.87;;
3815;SDS011;1923;48.154;11.536;2023-07-28T09:07:13;2.07;;;1.53;;
3815;SDS011;1923;48.154;11.536;2023-07-28T09:09:42;2.97;;;2.10;;
3815;SDS011;1923;48.154;11.536;2023-07-28T09:12:10;2.30;;;1.57;;
3815;SDS011;1923;48.154;11.536;2023-07-28T09:14:38;2.40;;;1.53;;
3815;SDS011;1923;48.154;11.536;2023-07-28T09:17:07;4.73;;;1.17;;
3815;SDS011;1923;48.154;11.536;2023-07-28T09:19:48;2.30;;;1.33;;
3815;SDS011;1923;48.154;11.536;2023-07-28T09:22:19;4.00;;;1.73;;
3815;SDS011;1923;48.154;11.536;2023-07-28T09:24:48;2.37;;;1.63;;
3815;SDS011;1923;48.154;11.536;2023-07-28T09:27:20;4.50;;;1.43;;
3815;SDS011;1923;48.154;11.536;2023-07-28T09:29:49;2.63;;;1.60;;
3815;SDS011;1923;48.154;11.536;2023-07-28T09:32:26;2.37;;;1.60;;
3815;SDS011;1923;48.154;11.536;2023-07-28T09:35:06;2.60;;;1.60;;
3815;SDS011;1923;48.154;11.536;2023-07-28T09:37:40;2.13;;;1.20;;
3815;SDS011;1923;48.154;11.536;2023-07-28T09:40:11;2.70;;;1.47;;
3815;SDS011;1923;48.154;11.536;2023-07-28T09:42:41;5.50;;;2.23;;
3815;SDS011;1923;48.154;11.536;2023-07-28T09:45:10;3.70;;;1.80;;
3815;SDS011;1923;48.154;11.536;2023-07-28T09:47:59;3.30;;;1.37;;
3815;SDS011;1923;48.154;11.536;2023-07-28T09:50:31;2.97;;;2.10;;
3815;SDS011;1923;48.154;11.536;2023-07-28T09:53:02;2.40;;;1.77;;
3815;SDS011;1923;48.154;11.536;2023-07-28T09:55:31;3.00;;;1.73;;
3815;SDS011;1923;48.154;11.536;2023-07-28T09:58:03;2.43;;;1.50;;
3815;SDS011;1923;48.154;11.536;2023-07-28T10:00:33;4.70;;;2.23;;
3815;SDS011;1923;48.154;11.536;2023-07-28T10:03:02;1.87;;;1.10;;
3815;SDS011;1923;48.154;11.536;2023-07-28T10:05:30;2.30;;;1.27;;
3815;SDS011;1923;48.154;11.536;2023-07-28T10:08:02;3.70;;;1.77;;
3815;SDS011;1923;48.154;11.536;2023-07-28T10:10:31;2.60;;;1.27;;
3815;SDS011;1923;48.154;11.536;2023-07-28T10:13:00;3.23;;;1.30;;
3815;SDS011;1923;48.154;11.536;2023-07-28T10:15:29;3.07;;;1.60;;
3815;SDS011;1923;48.154;11.536;2023-07-28T10:17:58;2.77;;;1.80;;
3815;SDS011;1923;48.154;11.536;2023-07-28T10:20:32;3.50;;;1.80;;
3815;SDS011;1923;48.154;11.536;2023-07-28T10:23:07;2.63;;;1.80;;
3815;SDS011;1923;48.154;11.536;2023-07-28T10:25:39;3.93;;;1.63;;
3815;SDS011;1923;48.154;11.536;2023-07-28T10:28:25;2.93;;;1.30;;
3815;SDS011;1923;48.154;11.536;2023-07-28T10:30:58;3.10;;;1.77;;
3815;SDS011;1923;48.154;11.536;2023-07-28T10:33:31;1.87;;;1.20;;
3815;SDS011;1923;48.154;11.536;2023-07-28T10:39:12;4.00;;;1.73;;
3815;SDS011;1923;48.154;11.536;2023-07-28T10:42:02;2.70;;;1.50;;
3815;SDS011;1923;48.154;11.536;2023-07-28T10:44:32;2.50;;;1.63;;
3815;SDS011;1923;48.154;11.536;2023-07-28T10:47:01;2.43;;;1.77;;
3815;SDS011;1923;48.154;11.536;2023-07-28T10:49:31;3.47;;;2.17;;
3815;SDS011;1923;48.154;11.536;2023-07-28T10:52:01;1.83;;;1.30;;
3815;SDS011;1923;48.154;11.536;2023-07-28T10:54:32;2.33;;;1.47;;
3815;SDS011;1923;48.154;11.536;2023-07-28T10:57:01;2.10;;;1.63;;
3815;SDS011;1923;48.154;11.536;2023-07-28T10:59:32;2.37;;;1.33;;
3815;SDS011;1923;48.154;11.536;2023-07-28T11:02:00;1.80;;;1.13;;
3815;SDS011;1923;48.154;11.536;2023-07-28T11:04:28;2.27;;;1.70;;
3815;SDS011;1923;48.154;11.536;2023-07-28T11:06:57;7.00;;;1.70;;
3815;SDS011;1923;48.154;11.536;2023-07-28T11:09:25;2.00;;;1.50;;
3815;SDS011;1923;48.154;11.536;2023-07-28T11:11:54;3.20;;;1.80;;
3815;SDS011;1923;48.154;11.536;2023-07-28T11:14:22;6.50;;;1.80;;
3815;SDS011;1923;48.154;11.536;2023-07-28T11:16:51;2.07;;;1.10;;
3815;SDS011;1923;48.154;11.536;2023-07-28T11:19:20;3.67;;;1.63;;
3815;SDS011;1923;48.154;11.536;2023-07-28T11:21:52;4.13;;;1.73;;
3815;SDS011;1923;48.154;11.536;2023-07-28T11:24:20;2.70;;;1.60;;
3815;SDS011;1923;48.154;11.536;2023-07-28T11:26:49;4.03;;;2.00;;
3815;SDS011;1923;48.154;11.536;2023-07-28T11:29:19;2.80;;;1.43;;
3815;SDS011;1923;48.154;11.536;2023-07-28T11:31:48;2.30;;;1.40;;
3815;SDS011;1923;48.154;11.536;2023-07-28T11:34:17;1.67;;;1.20;;
3815;SDS011;1923;48.154;11.536;2023-07-28T11:36:45;2.60;;;1.70;;
3815;SDS011;1923;48.154;11.536;2023-07-28T11:39:14;2.80;;;1.37;;
3815;SDS011;1923;48.154;11.536;2023-07-28T11:41:43;2.70;;;1.57;;
3815;SDS011;1923;48.154;11.536;2023-07-28T11:44:14;2.50;;;1.63;;
3815;SDS011;1923;48.154;11.536;2023-07-28T11:46:44;2.80;;;1.77;;
3815;SDS011;1923;48.154;11.536;2023-07-28T11:49:13;2.97;;;1.90;;
3815;SDS011;1923;48.154;11.536;2023-07-28T11:51:44;2.57;;;1.80;;
3815;SDS011;1923;48.154;11.536;2023-07-28T11:54:15;3.10;;;1.83;;
3815;SDS011;1923;48.154;11.536;2023-07-28T11:56:48;3.03;;;1.73;;
3815;SDS011;1923;48.154;11.536;2023-07-28T11:59:17;3.03;;;1.73;;
3815;SDS011;1923;48.154;11.536;2023-07-28T12:01:54;4.40;;;2.73;;
3815;SDS011;1923;48.154;11.536;2023-07-28T12:04:27;3.53;;;1.77;;
3815;SDS011;1923;48.154;11.536;2023-07-28T12:07:03;4.03;;;2.10;;
3815;SDS011;1923;48.154;11.536;2023-07-28T12:09:48;2.30;;;1.70;;
3815;SDS011;1923;48.154;11.536;2023-07-28T12:12:21;3.20;;;1.70;;
3815;SDS011;1923;48.154;11.536;2023-07-28T12:14:52;2.47;;;1.20;;
3815;SDS011;1923;48.154;11.536;2023-07-28T12:17:25;3.27;;;1.43;;
3815;SDS011;1923;48.154;11.536;2023-07-28T12:20:14;3.20;;;1.80;;
3815;SDS011;1923;48.154;11.536;2023-07-28T12:22:44;3.10;;;1.97;;
3815;SDS011;1923;48.154;11.536;2023-07-28T12:25:12;3.03;;;1.80;;
3815;SDS011;1923;48.154;11.536;2023-07-28T12:27:41;2.17;;;1.50;;
3815;SDS011;1923;48.154;11.536;2023-07-28T12:30:10;2.57;;;1.57;;
3815;SDS011;1923;48.154;11.536;2023-07-28T12:32:44;4.10;;;2.67;;
3815;SDS011;1923;48.154;11.536;2023-07-28T12:35:15;4.50;;;2.20;;
3815;SDS011;1923;48.154;11.536;2023-07-28T12:37:43;3.27;;;1.90;;
3815;SDS011;1923;48.154;11.536;2023-07-28T12:40:14;4.53;;;1.70;;
3815;SDS011;1923;48.154;11.536;2023-07-28T12:42:45;2.83;;;1.70;;
3815;SDS011;1923;48.154;11.536;2023-07-28T12:45:17;2.43;;;2.00;;
3815;SDS011;1923;48.154;11.536;2023-07-28T12:47:49;2.70;;;1.60;;
3815;SDS011;1923;48.154;11.536;2023-07-28T12:50:20;3.50;;;1.83;;
3815;SDS011;1923;48.154;11.536;2023-07-28T12:52:49;3.77;;;2.40;;
3815;SDS011;1923;48.154;11.536;2023-07-28T12:55:21;2.83;;;1.73;;
3815;SDS011;1923;48.154;11.536;2023-07-28T12:57:49;2.27;;;1.40;;
3815;SDS011;1923;48.154;11.536;2023-07-28T13:00:17;3.80;;;1.90;;
3815;SDS011;1923;48.154;11.536;2023-07-28T13:02:49;4.93;;;2.30;;
3815;SDS011;1923;48.154;11.536;2023-07-28T13:05:17;3.30;;;1.93;;
3815;SDS011;1923;48.154;11.536;2023-07-28T13:07:46;4.13;;;2.17;;
3815;SDS011;1923;48.154;11.536;2023-07-28T13:10:17;3.70;;;1.70;;
3815;SDS011;1923;48.154;11.536;2023-07-28T13:12:48;2.40;;;1.83;;
3815;SDS011;1923;48.154;11.536;2023-07-28T13:15:16;2.50;;;1.50;;
3815;SDS011;1923;48.154;11.536;2023-07-28T13:17:44;2.57;;;1.97;;
3815;SDS011;1923;48.154;11.536;2023-07-28T13:20:13;2.00;;;1.80;;
3815;SDS011;1923;48.154;11.536;2023-07-28T13:22:41;1.43;;;1.30;;
3815;SDS011;1923;48.154;11.536;2023-07-28T13:25:09;2.97;;;1.83;;
3815;SDS011;1923;48.154;11.536;2023-07-28T13:27:37;1.70;;;1.30;;
3815;SDS011;1923;48.154;11.536;2023-07-28T13:30:06;1.80;;;1.40;;
3815;SDS011;1923;48.154;11.536;2023-07-28T13:32:35;1.80;;;1.43;;
3815;SDS011;1923;48.154;11.536;2023-07-28T13:35:03;3.13;;;2.07;;
3815;SDS011;1923;48.154;11.536;2023-07-28T13:37:33;3.00;;;1.70;;
3815;SDS011;1923;48.154;11.536;2023-07-28T13:40:02;3.40;;;1.90;;
3815;SDS011;1923;48.154;11.536;2023-07-28T13:42:30;4.60;;;1.77;;
3815;SDS011;1923;48.154;11.536;2023-07-28T13:44:58;4.83;;;1.40;;
3815;SDS011;1923;48.154;11.536;2023-07-28T13:47:26;2.70;;;1.50;;
3815;SDS011;1923;48.154;11.536;2023-07-28T13:49:54;3.93;;;1.80;;
3815;SDS011;1923;48.154;11.536;2023-07-28T13:52:22;3.13;;;1.90;;
3815;SDS011;1923;48.154;11.536;2023-07-28T13:54:52;2.17;;;1.63;;
3815;SDS011;1923;48.154;11.536;2023-07-28T13:57:23;3.30;;;2.10;;
3815;SDS011;1923;48.154;11.536;2023-07-28T13:59:51;3.30;;;1.90;;
3815;SDS011;1923;48.154;11.536;2023-07-28T14:02:19;4.73;;;1.60;;
3815;SDS011;1923;48.154;11.536;2023-07-28T14:04:48;3.10;;;1.70;;
3815;SDS011;1923;48.154;11.536;2023-07-28T14:07:16;2.43;;;1.40;;
3815;SDS011;1923;48.154;11.536;2023-07-28T14:09:45;5.43;;;2.40;;
3815;SDS011;1923;48.154;11.536;2023-07-28T14:12:14;2.17;;;1.33;;
3815;SDS011;1923;48.154;11.536;2023-07-28T14:14:43;3.90;;;1.80;;
3815;SDS011;1923;48.154;11.536;2023-07-28T14:17:11;4.60;;;1.93;;
3815;SDS011;1923;48.154;11.536;2023-07-28T14:19:39;2.33;;;1.47;;
3815;SDS011;1923;48.154;11.536;2023-07-28T14:22:07;4.57;;;2.00;;
3815;SDS011;1923;48.154;11.536;2023-07-28T14:24:35;5.20;;;1.80;;
3815;SDS011;1923;48.154;11.536;2023-07-28T14:27:03;3.30;;;2.03;;
3815;SDS011;1923;48.154;11.536;2023-07-28T14:29:33;4.10;;;2.10;;
3815;SDS011;1923;48.154;11.536;2023-07-28T14:32:01;5.07;;;2.20;;
3815;SDS011;1923;48.154;11.536;2023-07-28T14:34:30;4.17;;;2.00;;
3815;SDS011;1923;48.154;11.536;2023-07-28T14:36:58;4.37;;;2.03;;
3815;SDS011;1923;48.154;11.536;2023-07-28T14:39:28;5.13;;;3.03;;
3815;SDS011;1923;48.154;11.536;2023-07-28T14:41:56;3.37;;;2.00;;
3815;SDS011;1923;48.154;11.536;2023-07-28T14:44:24;3.50;;;1.80;;
3815;SDS011;1923;48.154;11.536;2023-07-28T14:46:53;3.20;;;2.10;;
3815;SDS011;1923;48.154;11.536;2023-07-28T14:49:22;3.97;;;2.63;;
3815;SDS011;1923;48.154;11.536;2023-07-28T14:51:53;2.60;;;1.83;;
3815;SDS011;1923;48.154;11.536;2023-07-28T14:54:21;3.50;;;2.10;;
3815;SDS011;1923;48.154;11.536;2023-07-28T14:56:49;2.60;;;1.90;;
3815;SDS011;1923;48.154;11.536;2023-07-28T14:59:17;2.90;;;1.83;;
3815;SDS011;1923;48.154;11.536;2023-07-28T15:01:46;3.67;;;2.10;;
3815;SDS011;1923;48.154;11.536;2023-07-28T15:04:15;2.77;;;1.50;;
3815;SDS011;1923;48.154;11.536;2023-07-28T15:06:43;3.40;;;1.93;;
3815;SDS011;1923;48.154;11.536;2023-07-28T15:09:15;2.20;;;1.53;;
3815;SDS011;1923;48.154;11.536;2023-07-28T15:11:48;2.90;;;1.63;;
3815;SDS011;1923;48.154;11.536;2023-07-28T15:14:16;2.87;;;1.90;;
3815;SDS011;1923;48.154;11.536;2023-07-28T15:16:44;3.80;;;1.70;;